Paddy Hill, New York
Current Conditions -  °F | °C
As of 4:56 AM on Saturday 29 Nov 2014 (Local Time) from KART Reporting Station
Overcast Overcast  
Wind Chill: 24°   Ceiling: 2200
Heat Index: 24°   Visibility: 10mi
Dew Point: 16°   Wind: 3mph
Humidity: 71%   Direction: 150°SSE
Pressure: 30.21"   Gusts: NA
Location:  44.0259°N, 75.9857°W
Report Text: KART 290956Z AUTO 15003KT 10SM BKN022 OVC100 M04/M09 A3021 RMK AO2 SLP238 T10441089 $
Loading
Personal Weather Stations






























Interactive Weather Map New forecast layout! Learn more

10-Day Weather Forecast

Advertisements
Track Severe Weather on mobile